createdAt,value
2019-04-07T00:00:09.400Z,28.65
2019-04-07T00:01:22.719Z,31.17
2019-04-07T00:02:28.000Z,28.57
2019-04-07T00:03:32.500Z,26.30
2019-04-07T00:04:37.436Z,28.32
2019-04-07T00:05:42.435Z,26.57
2019-04-07T00:06:47.681Z,32.93
2019-04-07T00:07:54.120Z,26.52
2019-04-07T00:08:59.245Z,28.45
2019-04-07T00:10:06.393Z,30.80
2019-04-07T00:11:11.293Z,26.37
2019-04-07T00:12:16.313Z,26.87
2019-04-07T00:13:20.801Z,29.85
2019-04-07T00:14:25.257Z,29.20
2019-04-07T00:15:29.709Z,26.52
2019-04-07T00:16:35.149Z,26.80
2019-04-07T00:17:39.754Z,29.50
2019-04-07T00:18:44.524Z,29.02
2019-04-07T00:19:49.378Z,26.60
2019-04-07T00:20:54.066Z,30.88
2019-04-07T00:21:59.278Z,30.85
2019-04-07T00:23:03.758Z,30.60
2019-04-07T00:24:08.305Z,26.17
2019-04-07T00:25:13.123Z,26.57
2019-04-07T00:26:17.668Z,29.65
2019-04-07T00:27:22.825Z,28.07
2019-04-07T00:28:27.618Z,30.45
2019-04-07T00:29:32.424Z,30.10
2019-04-07T00:30:37.245Z,27.87
2019-04-07T00:31:42.052Z,30.40
2019-04-07T00:32:47.681Z,31.55
2019-04-07T00:33:53.025Z,28.30
2019-04-07T00:34:57.444Z,28.42
2019-04-07T00:36:01.902Z,27.35
2019-04-07T00:37:06.383Z,31.65
2019-04-07T00:38:10.833Z,29.63
2019-04-07T00:39:15.589Z,32.00
2019-04-07T00:40:20.803Z,30.97
2019-04-07T00:41:25.628Z,26.87
2019-04-07T00:42:30.170Z,27.58
2019-04-07T00:43:35.168Z,30.12
2019-04-07T00:44:39.960Z,27.65
2019-04-07T00:45:44.810Z,29.50
2019-04-07T00:46:49.894Z,29.02
2019-04-07T00:47:54.420Z,28.92
2019-04-07T00:48:59.416Z,24.25
2019-04-07T00:50:04.980Z,27.65
2019-04-07T00:51:10.199Z,27.55
2019-04-07T00:52:17.306Z,25.65
2019-04-07T00:53:22.079Z,29.35
2019-04-07T00:54:26.916Z,28.45
2019-04-07T00:55:32.123Z,27.48
2019-04-07T00:56:36.725Z,27.95
2019-04-07T00:57:41.644Z,29.82
2019-04-07T00:58:46.633Z,26.93
2019-04-07T00:59:51.763Z,26.57
2019-04-07T01:00:56.597Z,25.65
2019-04-07T01:02:01.459Z,26.85
2019-04-07T01:03:06.000Z,28.90
2019-04-07T01:04:11.094Z,28.77
2019-04-07T01:05:15.683Z,27.32
2019-04-07T01:06:23.037Z,26.33
2019-04-07T01:07:29.986Z,25.20
2019-04-07T01:08:34.770Z,27.37
2019-04-07T01:09:39.905Z,29.60
2019-04-07T01:10:44.439Z,28.25
2019-04-07T01:11:48.892Z,26.68
2019-04-07T01:12:54.010Z,26.50
2019-04-07T01:13:58.491Z,31.30
2019-04-07T01:15:03.333Z,25.12
2019-04-07T01:16:08.156Z,26.93
2019-04-07T01:17:12.638Z,23.87
2019-04-07T01:18:17.485Z,26.95
2019-04-07T01:19:22.765Z,25.05
2019-04-07T01:20:27.183Z,27.77
2019-04-07T01:21:31.635Z,27.32
2019-04-07T01:22:45.223Z,27.77
2019-04-07T01:23:49.127Z,25.60
2019-04-07T01:24:57.618Z,30.02
2019-04-07T01:26:02.071Z,33.18
2019-04-07T01:27:06.880Z,26.75
2019-04-07T01:28:12.088Z,29.25
2019-04-07T01:29:16.952Z,29.10
2019-04-07T01:30:21.496Z,29.18
2019-04-07T01:31:25.936Z,28.40
2019-04-07T01:32:31.333Z,28.85
2019-04-07T01:33:36.773Z,30.32
2019-04-07T01:34:42.691Z,27.55
2019-04-07T01:35:49.273Z,25.82
2019-04-07T01:36:54.376Z,27.42
2019-04-07T01:38:00.577Z,31.57
2019-04-07T01:39:08.778Z,28.77
2019-04-07T01:40:13.531Z,30.00
2019-04-07T01:41:35.792Z,30.17
2019-04-07T01:42:51.154Z,28.42
2019-04-07T01:44:12.876Z,28.75
2019-04-07T01:45:34.377Z,31.68
2019-04-07T01:46:49.382Z,28.38
2019-04-07T01:48:07.242Z,28.25
2019-04-07T01:49:13.712Z,31.90
2019-04-07T01:50:27.388Z,29.45
2019-04-07T01:51:45.507Z,29.67
2019-04-07T01:52:51.906Z,31.60
2019-04-07T01:53:58.074Z,29.00
2019-04-07T01:55:20.398Z,27.52
2019-04-07T01:56:44.007Z,28.17
2019-04-07T01:57:50.768Z,29.40
2019-04-07T01:58:59.958Z,34.20
2019-04-07T02:00:23.825Z,30.50
2019-04-07T02:01:46.679Z,25.43
2019-04-07T02:03:06.377Z,30.17
2019-04-07T02:04:30.858Z,31.35
2019-04-07T02:05:39.896Z,31.37
2019-04-07T02:06:48.920Z,29.95
2019-04-07T02:08:04.476Z,25.95
2019-04-07T02:09:13.631Z,29.65
2019-04-07T02:10:35.149Z,30.40
2019-04-07T02:11:41.303Z,33.63
2019-04-07T02:13:02.194Z,35.35
2019-04-07T02:14:08.681Z,34.38
2019-04-07T02:15:28.192Z,28.35
2019-04-07T02:16:38.034Z,33.85
2019-04-07T02:18:02.463Z,28.90
2019-04-07T02:19:24.094Z,32.35
2019-04-07T02:21:02.183Z,28.57
2019-04-07T02:22:24.417Z,32.40
2019-04-07T02:23:37.165Z,31.93
2019-04-07T02:24:59.622Z,27.30
2019-04-07T02:26:14.719Z,31.00
2019-04-07T02:27:23.985Z,30.90
2019-04-07T02:28:30.034Z,30.85
2019-04-07T02:29:52.828Z,29.95
2019-04-07T02:31:08.261Z,31.23
2019-04-07T02:32:17.405Z,25.52
2019-04-07T02:33:24.332Z,33.18
2019-04-07T02:34:30.893Z,30.85
2019-04-07T02:35:40.000Z,30.15
2019-04-07T02:36:46.572Z,30.72
2019-04-07T02:37:58.801Z,30.27
2019-04-07T02:39:05.635Z,30.90
2019-04-07T02:40:12.068Z,30.40
2019-04-07T02:41:21.523Z,31.10
2019-04-07T02:42:43.886Z,27.85
2019-04-07T02:44:06.857Z,30.37
2019-04-07T02:45:17.375Z,30.92
2019-04-07T02:46:27.059Z,30.65
2019-04-07T02:47:42.130Z,31.70
2019-04-07T02:48:58.933Z,35.45
2019-04-07T02:50:19.558Z,30.50
2019-04-07T02:51:27.210Z,30.05
2019-04-07T02:52:33.315Z,31.12
2019-04-07T02:53:41.109Z,28.60
2019-04-07T02:54:57.228Z,29.23
2019-04-07T02:56:03.538Z,28.38
2019-04-07T02:57:13.173Z,28.38
2019-04-07T02:58:31.333Z,33.85
2019-04-07T02:59:44.272Z,31.50
2019-04-07T03:01:05.944Z,36.90
2019-04-07T03:02:31.729Z,32.60
2019-04-07T03:03:41.344Z,31.42
2019-04-07T03:05:05.306Z,31.10
2019-04-07T03:06:17.238Z,30.37
2019-04-07T03:07:20.216Z,29.07
2019-04-07T03:08:27.362Z,32.55
2019-04-07T03:09:34.551Z,30.48
2019-04-07T03:10:44.218Z,33.42
2019-04-07T03:11:50.994Z,30.12
2019-04-07T03:13:09.460Z,32.48
2019-04-07T03:14:18.374Z,32.67
2019-04-07T03:15:25.082Z,33.13
2019-04-07T03:16:31.270Z,31.68
2019-04-07T03:17:37.788Z,32.75
2019-04-07T03:18:52.927Z,36.30
2019-04-07T03:20:15.862Z,35.52
2019-04-07T03:21:24.715Z,34.45
2019-04-07T03:22:43.922Z,34.75
2019-04-07T03:23:51.363Z,34.15
2019-04-07T03:25:14.009Z,35.68
2019-04-07T03:26:26.148Z,38.17
2019-04-07T03:27:38.275Z,33.40
2019-04-07T03:28:44.415Z,33.60
2019-04-07T03:29:50.475Z,37.90
2019-04-07T03:31:10.362Z,32.93
2019-04-07T03:32:27.699Z,34.63
2019-04-07T03:33:50.190Z,31.60
2019-04-07T03:35:05.341Z,30.02
2019-04-07T03:36:15.513Z,32.78
2019-04-07T03:37:36.281Z,30.12
2019-04-07T03:38:39.352Z,32.40
2019-04-07T03:39:52.527Z,35.88
2019-04-07T03:41:01.509Z,29.87
2019-04-07T03:42:08.629Z,30.35
2019-04-07T03:43:33.015Z,35.63
2019-04-07T03:44:44.962Z,34.00
2019-04-07T03:45:54.975Z,34.10
2019-04-07T03:47:07.233Z,31.42
2019-04-07T03:48:13.785Z,30.90
2019-04-07T03:49:20.365Z,32.65
2019-04-07T03:50:31.551Z,34.83
2019-04-07T03:51:37.883Z,31.33
2019-04-07T03:52:59.531Z,34.63
2019-04-07T03:54:05.620Z,31.75
2019-04-07T03:55:11.856Z,34.38
2019-04-07T03:56:34.373Z,33.35
2019-04-07T03:57:57.046Z,31.00
2019-04-07T03:59:03.513Z,36.98
2019-04-07T04:00:26.182Z,35.92
2019-04-07T04:01:47.865Z,30.68
2019-04-07T04:02:56.960Z,32.73
2019-04-07T04:04:19.296Z,31.60
2019-04-07T04:05:26.068Z,36.98
2019-04-07T04:06:51.519Z,31.62
2019-04-07T04:08:16.096Z,37.35
2019-04-07T04:09:32.452Z,37.35
2019-04-07T04:10:38.655Z,32.85
2019-04-07T04:12:03.207Z,31.95
2019-04-07T04:13:27.325Z,30.10
2019-04-07T04:14:39.786Z,33.42
2019-04-07T04:15:46.890Z,31.17
2019-04-07T04:16:53.130Z,31.37
2019-04-07T04:17:57.585Z,34.13
2019-04-07T04:19:02.484Z,36.15
2019-04-07T04:20:08.676Z,33.15
2019-04-07T04:21:13.127Z,34.27
2019-04-07T04:22:18.511Z,30.92
2019-04-07T04:23:23.231Z,33.50
2019-04-07T04:24:28.633Z,31.33
2019-04-07T04:25:34.084Z,36.30
2019-04-07T04:26:38.657Z,33.42
2019-04-07T04:27:43.187Z,31.20
2019-04-07T04:28:48.800Z,33.85
2019-04-07T04:29:53.844Z,31.05
2019-04-07T04:30:59.945Z,29.07
2019-04-07T04:32:04.503Z,35.75
2019-04-07T04:33:09.046Z,31.70
2019-04-07T04:34:13.941Z,34.48
2019-04-07T04:35:18.974Z,31.37
2019-04-07T04:36:24.051Z,41.08
2019-04-07T04:37:41.240Z,32.05
2019-04-07T04:38:35.046Z,37.53
2019-04-07T04:39:39.505Z,33.55
2019-04-07T04:40:44.131Z,31.10
2019-04-07T04:41:49.084Z,33.13
2019-04-07T04:42:53.999Z,39.00
2019-04-07T04:44:00.426Z,35.80
2019-04-07T04:45:08.802Z,35.23
2019-04-07T04:46:13.637Z,35.08
2019-04-07T04:47:19.032Z,35.60
2019-04-07T04:48:23.853Z,32.58
2019-04-07T04:49:28.915Z,37.30
2019-04-07T04:50:33.792Z,37.78
2019-04-07T04:51:39.435Z,31.45
2019-04-07T04:52:45.427Z,34.25
2019-04-07T04:53:50.483Z,32.28
2019-04-07T04:54:55.034Z,36.08
2019-04-07T04:56:00.898Z,35.98
2019-04-07T04:57:07.986Z,34.50
2019-04-07T04:58:12.598Z,31.48
2019-04-07T04:59:17.977Z,31.93
2019-04-07T05:00:22.656Z,37.15
2019-04-07T05:01:27.581Z,31.80
2019-04-07T05:02:32.617Z,30.32
2019-04-07T05:03:38.342Z,34.33
2019-04-07T05:04:43.863Z,33.63
2019-04-07T05:05:49.161Z,34.88
2019-04-07T05:06:53.727Z,33.00
2019-04-07T05:08:03.434Z,34.92
2019-04-07T05:09:06.883Z,38.08
2019-04-07T05:10:12.175Z,37.93
2019-04-07T05:11:17.475Z,34.85
2019-04-07T05:12:22.068Z,31.55
2019-04-07T05:13:27.238Z,33.48
2019-04-07T05:14:32.144Z,31.12
2019-04-07T05:15:36.620Z,31.55
2019-04-07T05:16:41.455Z,31.60
2019-04-07T05:17:45.983Z,36.93
2019-04-07T05:18:50.542Z,37.88
2019-04-07T05:19:55.069Z,32.85
2019-04-07T05:20:59.767Z,30.68
2019-04-07T05:22:05.000Z,32.93
2019-04-07T05:23:09.877Z,29.07
2019-04-07T05:24:14.693Z,35.43
2019-04-07T05:25:19.567Z,35.78
2019-04-07T05:26:24.109Z,35.68
2019-04-07T05:27:29.276Z,30.52
2019-04-07T05:28:36.867Z,35.35
2019-04-07T05:29:40.321Z,31.95
2019-04-07T05:30:45.353Z,34.83
2019-04-07T05:31:50.343Z,36.85
2019-04-07T05:32:55.532Z,31.48
2019-04-07T05:34:00.402Z,29.95
2019-04-07T05:35:07.689Z,38.00
2019-04-07T05:36:14.773Z,32.08
2019-04-07T05:37:19.291Z,32.50
2019-04-07T05:38:24.045Z,30.62
2019-04-07T05:39:29.480Z,32.33
2019-04-07T05:40:34.557Z,32.90
2019-04-07T05:41:39.385Z,32.98
2019-04-07T05:42:44.478Z,31.68
2019-04-07T05:43:49.139Z,35.05
2019-04-07T05:44:53.650Z,33.83
2019-04-07T05:45:59.287Z,31.97
2019-04-07T05:47:03.991Z,29.10
2019-04-07T05:48:08.451Z,30.27
2019-04-07T05:49:15.772Z,29.80
2019-04-07T05:50:20.053Z,31.17
2019-04-07T05:51:25.043Z,35.17
2019-04-07T05:52:29.454Z,34.33
2019-04-07T05:53:34.494Z,33.60
2019-04-07T05:54:39.437Z,34.95
2019-04-07T05:55:44.854Z,31.37
2019-04-07T05:56:50.340Z,29.07
2019-04-07T05:57:54.838Z,32.48
2019-04-07T05:58:59.591Z,31.73
2019-04-07T06:00:15.713Z,33.76
2019-04-07T06:01:23.258Z,34.05
2019-04-07T06:02:25.629Z,35.20
2019-04-07T06:03:30.656Z,30.88
2019-04-07T06:04:36.072Z,29.42
2019-04-07T06:05:40.972Z,31.48
2019-04-07T06:06:45.447Z,33.05
2019-04-07T06:07:50.505Z,29.50
2019-04-07T06:08:55.267Z,31.90
2019-04-07T06:10:00.136Z,34.65
2019-04-07T06:11:05.008Z,29.10
2019-04-07T06:12:09.922Z,38.30
2019-04-07T06:13:15.759Z,26.93
2019-04-07T06:14:21.464Z,28.25
2019-04-07T06:15:25.916Z,29.18
2019-04-07T06:16:30.383Z,27.62
2019-04-07T06:17:35.767Z,31.95
2019-04-07T06:18:40.288Z,32.85
2019-04-07T06:19:44.956Z,32.55
2019-04-07T06:20:49.814Z,34.33
2019-04-07T06:21:54.870Z,34.78
2019-04-07T06:23:00.345Z,33.00
2019-04-07T06:24:05.135Z,29.77
2019-04-07T06:25:11.127Z,30.50
2019-04-07T06:26:15.608Z,32.38
2019-04-07T06:27:20.102Z,31.65
2019-04-07T06:28:24.889Z,35.70
2019-04-07T06:29:30.090Z,31.48
2019-04-07T06:30:36.245Z,28.77
2019-04-07T06:31:41.483Z,36.35
2019-04-07T06:32:46.354Z,32.03
2019-04-07T06:33:51.647Z,29.50
2019-04-07T06:34:57.169Z,31.17
2019-04-07T06:36:02.206Z,31.90
2019-04-07T06:37:07.703Z,36.50
2019-04-07T06:38:12.294Z,35.35
2019-04-07T06:39:18.883Z,30.60
2019-04-07T06:40:23.148Z,28.90
2019-04-07T06:41:30.394Z,32.70
2019-04-07T06:42:34.331Z,30.37
2019-04-07T06:43:40.160Z,138.62
2019-04-07T06:44:44.885Z,36.90
2019-04-07T06:45:58.456Z,36.83
2019-04-07T06:47:07.650Z,32.08
2019-04-07T06:48:13.378Z,32.20
2019-04-07T06:49:27.802Z,32.25
2019-04-07T06:50:56.647Z,33.78
2019-04-07T06:52:01.956Z,30.92
2019-04-07T06:53:16.320Z,34.90
2019-04-07T06:54:18.932Z,35.00
2019-04-07T06:55:41.720Z,31.30
2019-04-07T06:57:06.445Z,34.33
2019-04-07T06:58:27.481Z,36.90
2019-04-07T06:59:50.149Z,31.07
2019-04-07T07:00:57.561Z,37.30
2019-04-07T07:02:20.816Z,32.28
2019-04-07T07:03:36.034Z,33.25
2019-04-07T07:04:43.560Z,39.45
2019-04-07T07:06:03.814Z,33.45
2019-04-07T07:07:26.495Z,33.40
2019-04-07T07:08:46.792Z,38.58
2019-04-07T07:09:52.212Z,30.60
2019-04-07T07:11:01.016Z,29.98
2019-04-07T07:12:20.602Z,30.40
2019-04-07T07:13:35.444Z,33.60
2019-04-07T07:14:44.524Z,33.85
2019-04-07T07:16:09.585Z,32.13
2019-04-07T07:17:21.474Z,31.35
2019-04-07T07:18:28.339Z,30.75
2019-04-07T07:19:42.284Z,32.08
2019-04-07T07:20:48.828Z,34.23
2019-04-07T07:22:01.202Z,31.77
2019-04-07T07:23:14.716Z,28.55
2019-04-07T07:24:24.992Z,30.43
2019-04-07T07:25:28.576Z,30.82
2019-04-07T07:26:34.584Z,30.82
2019-04-07T07:27:40.398Z,29.40
2019-04-07T07:28:44.966Z,30.50
2019-04-07T07:29:52.814Z,31.70
2019-04-07T07:30:56.225Z,34.63
2019-04-07T07:32:03.784Z,33.20
2019-04-07T07:33:10.003Z,35.43
2019-04-07T07:34:14.333Z,34.58
2019-04-07T07:35:19.063Z,35.17
2019-04-07T07:36:23.994Z,32.17
2019-04-07T07:37:29.015Z,30.05
2019-04-07T07:38:34.556Z,34.33
2019-04-07T07:39:41.928Z,35.30
2019-04-07T07:40:47.740Z,35.15
2019-04-07T07:41:53.041Z,32.85
2019-04-07T07:42:59.133Z,30.48
2019-04-07T07:44:07.486Z,33.38
2019-04-07T07:45:12.932Z,36.05
2019-04-07T07:46:20.600Z,30.15
2019-04-07T07:47:23.016Z,35.20
2019-04-07T07:48:28.358Z,29.02
2019-04-07T07:49:35.203Z,28.95
2019-04-07T07:50:40.464Z,34.33
2019-04-07T07:51:47.931Z,29.37
2019-04-07T07:52:54.423Z,35.58
2019-04-07T07:54:00.733Z,33.28
2019-04-07T07:55:05.803Z,30.95
2019-04-07T07:56:12.916Z,33.18
2019-04-07T07:57:21.126Z,28.07
2019-04-07T07:58:23.656Z,33.60
2019-04-07T07:59:33.133Z,32.42
2019-04-07T08:00:40.024Z,29.67
2019-04-07T08:01:44.275Z,32.63
2019-04-07T08:02:50.195Z,29.63
2019-04-07T08:03:55.427Z,25.12
2019-04-07T08:05:00.592Z,33.90
2019-04-07T08:06:08.230Z,30.23
2019-04-07T08:07:13.552Z,32.80
2019-04-07T08:08:17.936Z,31.05
2019-04-07T08:09:25.153Z,27.42
2019-04-07T08:10:29.069Z,28.83
2019-04-07T08:11:34.712Z,28.02
2019-04-07T08:12:40.011Z,26.50
2019-04-07T08:13:45.861Z,33.23
2019-04-07T08:14:55.110Z,28.07
2019-04-07T08:15:58.327Z,31.27
2019-04-07T08:17:03.985Z,33.13
2019-04-07T08:18:09.764Z,28.47
2019-04-07T08:19:14.186Z,25.75
2019-04-07T08:20:19.684Z,24.60
2019-04-07T08:21:24.728Z,24.92
2019-04-07T08:22:33.758Z,23.77
2019-04-07T08:23:36.190Z,26.73
2019-04-07T08:24:41.530Z,26.48
2019-04-07T08:25:46.111Z,27.75
2019-04-07T08:26:50.617Z,30.72
2019-04-07T08:27:55.363Z,31.02
2019-04-07T08:29:00.099Z,27.05
2019-04-07T08:30:10.954Z,31.68
2019-04-07T08:31:17.782Z,26.95
2019-04-07T08:32:22.657Z,26.55
2019-04-07T08:33:29.546Z,28.40
2019-04-07T08:34:33.721Z,25.23
2019-04-07T08:35:39.686Z,29.27
2019-04-07T08:36:46.225Z,25.85
2019-04-07T08:37:50.842Z,23.70
2019-04-07T08:38:56.988Z,24.55
2019-04-07T08:40:04.310Z,23.45
2019-04-07T08:41:10.148Z,23.60
2019-04-07T08:42:18.500Z,30.32
2019-04-07T08:43:22.839Z,33.10
2019-04-07T08:44:29.278Z,53.17
2019-04-07T08:45:32.874Z,26.52
2019-04-07T08:46:40.882Z,27.22
2019-04-07T08:47:43.468Z,24.27
2019-04-07T08:48:51.783Z,22.27
2019-04-07T08:49:57.792Z,25.15
2019-04-07T08:51:01.884Z,24.30
2019-04-07T08:52:09.920Z,22.25
2019-04-07T08:53:13.812Z,24.32
2019-04-07T08:54:21.479Z,24.70
2019-04-07T08:55:31.450Z,30.12
2019-04-07T08:56:36.641Z,23.07
2019-04-07T08:57:42.261Z,22.25
2019-04-07T08:58:47.775Z,21.15
2019-04-07T08:59:52.775Z,22.50
2019-04-07T09:00:58.553Z,20.15
2019-04-07T09:02:03.232Z,23.18
2019-04-07T09:03:12.123Z,20.97
2019-04-07T09:04:16.557Z,25.27
2019-04-07T09:05:25.608Z,22.10
2019-04-07T09:06:28.573Z,20.17
2019-04-07T09:07:33.468Z,22.70
2019-04-07T09:08:39.874Z,23.42
2019-04-07T09:09:48.492Z,16.15
2019-04-07T09:10:56.704Z,21.45
2019-04-07T09:12:01.508Z,21.42
2019-04-07T09:13:08.510Z,18.12
2019-04-07T09:14:14.733Z,19.50
2019-04-07T09:15:29.017Z,20.57
2019-04-07T09:16:46.872Z,20.23
2019-04-07T09:18:01.265Z,18.15
2019-04-07T09:19:09.168Z,17.48
2019-04-07T09:20:24.401Z,17.65
2019-04-07T09:21:38.701Z,19.82
2019-04-07T09:22:43.998Z,22.67
2019-04-07T09:24:01.924Z,21.45
2019-04-07T09:25:12.020Z,20.30
2019-04-07T09:26:22.687Z,20.15
2019-04-07T09:27:36.266Z,18.85
2019-04-07T09:28:45.358Z,18.75
2019-04-07T09:30:08.996Z,17.40
2019-04-07T09:31:33.255Z,15.83
2019-04-07T09:32:48.622Z,20.25
2019-04-07T09:33:55.075Z,15.35
2019-04-07T09:35:17.720Z,17.12
2019-04-07T09:36:39.473Z,17.17
2019-04-07T09:37:49.201Z,19.35
2019-04-07T09:39:03.600Z,23.95
2019-04-07T09:40:20.148Z,22.95
2019-04-07T09:41:41.681Z,17.42
2019-04-07T09:43:00.946Z,15.78
2019-04-07T09:44:21.024Z,20.80
2019-04-07T09:45:27.636Z,17.62
2019-04-07T09:46:33.827Z,20.43
2019-04-07T09:47:47.158Z,16.20
2019-04-07T09:48:56.368Z,20.68
2019-04-07T09:50:11.396Z,18.57
2019-04-07T09:51:26.571Z,20.75
2019-04-07T09:52:50.762Z,17.95
2019-04-07T09:54:06.357Z,18.17
2019-04-07T09:55:28.792Z,20.20
2019-04-07T09:56:37.554Z,18.02
2019-04-07T09:57:56.011Z,16.45
2019-04-07T09:59:19.257Z,14.18
2019-04-07T10:00:37.159Z,16.48
2019-04-07T10:01:59.330Z,19.52
2019-04-07T10:03:12.957Z,14.78
2019-04-07T10:04:16.824Z,14.15
2019-04-07T10:05:23.292Z,20.05
2019-04-07T10:06:39.339Z,20.25
2019-04-07T10:07:54.816Z,17.45
2019-04-07T10:09:04.125Z,17.57
2019-04-07T10:10:13.751Z,23.32
2019-04-07T10:11:18.330Z,21.30
2019-04-07T10:12:25.202Z,17.62
2019-04-07T10:13:44.203Z,19.57
2019-04-07T10:15:05.542Z,16.77
2019-04-07T10:16:11.966Z,16.52
2019-04-07T10:17:21.035Z,16.10
2019-04-07T10:18:42.976Z,18.85
2019-04-07T10:19:55.698Z,17.50
2019-04-07T10:21:07.192Z,16.67
2019-04-07T10:22:13.919Z,18.40
2019-04-07T10:23:20.795Z,22.55
2019-04-07T10:24:30.331Z,19.92
2019-04-07T10:25:52.241Z,20.37
2019-04-07T10:27:14.632Z,17.32
2019-04-07T10:28:25.534Z,21.15
2019-04-07T10:29:37.727Z,16.77
2019-04-07T10:30:56.663Z,16.15
2019-04-07T10:32:03.468Z,18.98
2019-04-07T10:33:10.026Z,19.75
2019-04-07T10:34:33.067Z,19.20
2019-04-07T10:35:54.974Z,18.85
2019-04-07T10:37:04.995Z,16.77
2019-04-07T10:38:14.179Z,16.15
2019-04-07T10:39:32.167Z,19.67
2019-04-07T10:40:53.143Z,15.78
2019-04-07T10:42:02.616Z,19.20
2019-04-07T10:43:11.816Z,17.27
2019-04-07T10:44:32.550Z,19.10
2019-04-07T10:45:39.325Z,18.75
2019-04-07T10:46:48.094Z,22.07
2019-04-07T10:47:57.833Z,20.40
2019-04-07T10:49:20.662Z,23.07
2019-04-07T10:50:36.836Z,17.00
2019-04-07T10:51:48.907Z,19.17
2019-04-07T10:53:09.874Z,17.30
2019-04-07T10:54:25.156Z,17.05
2019-04-07T10:55:44.192Z,21.25
2019-04-07T10:56:51.751Z,17.52
2019-04-07T10:57:58.474Z,20.35
2019-04-07T10:59:10.337Z,16.77
2019-04-07T11:00:33.793Z,19.20
2019-04-07T11:01:51.784Z,18.02
2019-04-07T11:03:04.774Z,15.20
2019-04-07T11:04:25.737Z,18.40
2019-04-07T11:05:48.226Z,19.60
2019-04-07T11:06:54.330Z,17.30
2019-04-07T11:08:09.002Z,17.87
2019-04-07T11:09:15.635Z,17.77
2019-04-07T11:10:34.623Z,17.55
2019-04-07T11:11:49.087Z,17.65
2019-04-07T11:13:12.735Z,19.92
2019-04-07T11:14:35.049Z,17.52
2019-04-07T11:15:52.776Z,16.50
2019-04-07T11:17:08.066Z,17.20
2019-04-07T11:18:30.327Z,19.50
2019-04-07T11:19:39.803Z,16.90
2019-04-07T11:20:47.124Z,16.65
2019-04-07T11:21:56.650Z,18.35
2019-04-07T11:23:06.335Z,21.48
2019-04-07T11:24:15.511Z,18.42
2019-04-07T11:25:30.422Z,16.00
2019-04-07T11:26:42.901Z,17.92
2019-04-07T11:27:51.858Z,15.15
2019-04-07T11:29:14.462Z,19.20
2019-04-07T11:30:24.501Z,19.98
2019-04-07T11:31:31.050Z,16.85
2019-04-07T11:32:52.207Z,19.50
2019-04-07T11:33:58.848Z,21.73
2019-04-07T11:35:19.989Z,18.35
2019-04-07T11:36:31.837Z,19.20
2019-04-07T11:37:37.943Z,22.27
2019-04-07T11:38:45.163Z,19.27
2019-04-07T11:39:51.364Z,16.10
2019-04-07T11:41:00.469Z,17.20
2019-04-07T11:42:23.040Z,17.80
2019-04-07T11:43:29.178Z,17.60
2019-04-07T11:44:35.689Z,15.88
2019-04-07T11:46:02.256Z,16.73
2019-04-07T11:47:11.757Z,19.57
2019-04-07T11:48:17.867Z,17.48
2019-04-07T11:49:30.221Z,21.75
2019-04-07T11:50:48.938Z,17.65
2019-04-07T11:52:03.869Z,19.82
2019-04-07T11:53:16.690Z,16.65
2019-04-07T11:54:29.565Z,15.23
2019-04-07T11:55:53.229Z,15.32
2019-04-07T11:56:59.396Z,16.95
2019-04-07T11:58:20.139Z,16.17
2019-04-07T11:59:26.332Z,17.45
2019-04-07T12:00:42.018Z,17.37
2019-04-07T12:02:07.409Z,19.32
2019-04-07T12:03:18.227Z,17.00
2019-04-07T12:04:25.128Z,22.05
2019-04-07T12:05:37.858Z,15.45
2019-04-07T12:07:00.135Z,18.98
2019-04-07T12:08:24.570Z,19.40
2019-04-07T12:09:46.745Z,17.57
2019-04-07T12:11:09.715Z,16.55
2019-04-07T12:12:20.140Z,17.57
2019-04-07T12:13:29.720Z,16.15
2019-04-07T12:14:36.313Z,15.80
2019-04-07T12:15:45.210Z,15.28
2019-04-07T12:17:07.546Z,17.10
2019-04-07T12:18:20.226Z,15.58
2019-04-07T12:19:26.471Z,16.25
2019-04-07T12:20:50.786Z,17.98
2019-04-07T12:22:05.514Z,16.73
2019-04-07T12:23:23.300Z,17.73
2019-04-07T12:24:29.386Z,15.45
2019-04-07T12:25:36.024Z,17.23
2019-04-07T12:27:01.749Z,15.88
2019-04-07T12:28:19.428Z,18.57
2019-04-07T12:29:29.101Z,15.75
2019-04-07T12:30:37.990Z,17.85
2019-04-07T12:32:00.689Z,27.52
2019-04-07T12:33:09.965Z,35.83
2019-04-07T12:34:18.988Z,19.48
2019-04-07T12:35:34.115Z,26.25
2019-04-07T12:36:40.880Z,15.45
2019-04-07T12:38:02.398Z,21.87
2019-04-07T12:39:10.430Z,16.85
2019-04-07T12:40:23.240Z,15.35
2019-04-07T12:41:31.840Z,18.20
2019-04-07T12:42:49.189Z,17.48
2019-04-07T12:43:58.186Z,15.80
2019-04-07T12:45:04.767Z,20.48
2019-04-07T12:46:11.150Z,19.62
2019-04-07T12:47:18.108Z,19.73
2019-04-07T12:48:30.072Z,20.72
2019-04-07T12:49:42.158Z,17.52
2019-04-07T12:50:58.444Z,17.27
2019-04-07T12:52:05.470Z,17.67
2019-04-07T12:53:15.441Z,19.12
2019-04-07T12:54:22.169Z,15.98
2019-04-07T12:55:48.883Z,17.25
2019-04-07T12:57:09.797Z,15.23
2019-04-07T12:58:19.227Z,16.48
2019-04-07T12:59:31.163Z,15.93
2019-04-07T13:00:56.095Z,18.82
2019-04-07T13:02:04.547Z,17.87
2019-04-07T13:03:08.550Z,14.78
2019-04-07T13:04:15.439Z,15.53
2019-04-07T13:05:21.546Z,15.20
2019-04-07T13:06:33.447Z,13.80
2019-04-07T13:07:48.504Z,13.70
2019-04-07T13:08:56.044Z,17.17
2019-04-07T13:10:03.371Z,15.43
2019-04-07T13:11:11.220Z,16.50
2019-04-07T13:12:32.215Z,16.57
2019-04-07T13:14:52.466Z,17.20
2019-04-07T13:15:58.849Z,19.17
2019-04-07T13:17:14.634Z,19.45
2019-04-07T13:18:21.902Z,17.05
2019-04-07T13:19:28.611Z,18.60
2019-04-07T13:20:34.807Z,15.70
2019-04-07T13:21:45.974Z,19.12
2019-04-07T13:22:51.914Z,17.03
2019-04-07T13:23:57.970Z,16.67
2019-04-07T13:25:09.755Z,15.05
2019-04-07T13:26:18.849Z,18.00
2019-04-07T13:27:27.759Z,18.37
2019-04-07T13:28:34.164Z,13.70
2019-04-07T13:29:41.290Z,18.77
2019-04-07T13:30:52.012Z,16.07
2019-04-07T13:32:13.274Z,18.12
2019-04-07T13:33:26.865Z,16.15
2019-04-07T13:34:31.069Z,19.90
2019-04-07T13:35:37.696Z,15.18
2019-04-07T13:36:53.301Z,16.60
2019-04-07T13:38:18.092Z,16.65
2019-04-07T13:39:24.808Z,16.67
2019-04-07T13:40:31.780Z,16.50
2019-04-07T13:41:46.116Z,17.20
2019-04-07T13:44:07.191Z,15.60
2019-04-07T13:45:14.217Z,15.80
2019-04-07T13:46:27.819Z,14.28
2019-04-07T13:47:28.747Z,15.38
2019-04-07T13:48:51.595Z,13.83
2019-04-07T13:50:09.060Z,17.05
2019-04-07T13:51:24.265Z,18.42
2019-04-07T13:52:42.443Z,15.23
2019-04-07T13:53:48.544Z,17.62
2019-04-07T13:54:55.806Z,16.67
2019-04-07T13:56:18.283Z,14.45
2019-04-07T13:57:41.023Z,15.43
2019-04-07T13:58:53.190Z,17.37
2019-04-07T14:00:01.986Z,16.48
2019-04-07T14:01:25.662Z,17.75
2019-04-07T14:02:32.049Z,16.42
2019-04-07T14:03:44.177Z,15.98
2019-04-07T14:04:59.828Z,17.10
2019-04-07T14:06:11.344Z,19.57
2019-04-07T14:07:35.027Z,16.67
2019-04-07T14:08:49.525Z,14.95
2019-04-07T14:10:11.292Z,15.63
2019-04-07T14:11:35.052Z,18.70
2019-04-07T14:13:01.539Z,17.60
2019-04-07T14:14:22.311Z,15.80
2019-04-07T14:15:46.371Z,17.15
2019-04-07T14:17:05.078Z,17.50
2019-04-07T14:18:17.279Z,14.68
2019-04-07T14:19:24.192Z,15.28
2019-04-07T14:20:47.465Z,16.40
2019-04-07T14:22:09.143Z,16.85
2019-04-07T14:23:29.848Z,17.98
2019-04-07T14:24:42.475Z,15.43
2019-04-07T14:26:06.751Z,14.83
2019-04-07T14:27:15.952Z,16.70
2019-04-07T14:28:25.535Z,16.37
2019-04-07T14:29:41.623Z,16.30
2019-04-07T14:31:04.408Z,12.78
2019-04-07T14:32:27.294Z,12.45
2019-04-07T14:33:44.986Z,15.25
2019-04-07T14:34:57.573Z,14.68
2019-04-07T14:36:04.331Z,16.05
2019-04-07T14:37:28.617Z,16.85
2019-04-07T14:38:37.812Z,14.83
2019-04-07T14:39:44.455Z,14.75
2019-04-07T14:40:57.516Z,14.23
2019-04-07T14:42:20.339Z,16.48
2019-04-07T14:43:27.516Z,17.67
2019-04-07T14:44:42.698Z,17.55
2019-04-07T14:45:52.626Z,15.45
2019-04-07T14:47:16.042Z,15.75
2019-04-07T14:48:31.241Z,14.95
2019-04-07T14:49:41.109Z,14.93
2019-04-07T14:50:47.359Z,14.10
2019-04-07T14:52:02.585Z,15.95
2019-04-07T14:53:13.162Z,15.63
2019-04-07T14:54:22.620Z,18.02
2019-04-07T14:55:48.927Z,14.63
2019-04-07T14:56:58.502Z,16.80
2019-04-07T14:58:16.776Z,14.63
2019-04-07T14:59:30.507Z,14.70
2019-04-07T15:00:42.881Z,15.63
2019-04-07T15:02:00.057Z,19.50
2019-04-07T15:03:02.824Z,17.52
2019-04-07T15:04:08.344Z,13.32
2019-04-07T15:05:24.668Z,13.30
2019-04-07T15:06:30.972Z,15.00